Main page
METAR-TAF:

METAR-TAF

Airports :

Loei Airport

Loei, Thailand

latitude: 17-27N, longitude: 101-44E, elevation: 253 m

Current weather observation

The report was made 8 hours and 10 minutes ago, at 12:00 UTC
Calm wind
Temperature 25°C
Humidity 89%
Pressure 1011 hPa
Visibility 10 km or more
no clouds below 1500 m and no cumulonimbus

METAR: VTUL 011200Z 00000KT CAVOK 25/23 Q1011 NOSIG

Time: 03:10 (20:10 UTC)

Forecast

The report was made 3 hours and 10 minutes ago, at 17:00 UTC
Forecast valid from 01 at 18 UTC to 02 at 18 UTC
Wind 5 kt from the East
Visibility: 9000 m

TAF: VTUL 011700Z 0118/0218 08005KT 9000 NSC

Weather observations and forecasts of more than 4000 airports (METAR and TAF reports).

The available stations are represented by yellow and red dots on the map.

Hover mouse over dot to see the name of the station.

Then click to see weather observations and forecasts.

To change the map : click on the green buttons with a black cross to zoom in, on the green button with a dash to zoom out, or on the green arrows for adjacent maps.


METAR-TAF: